sensor_id;sensor_type;location;lat;lon;timestamp;temperature;humidity
76426;DHT22;65258;42.680;23.266;2022-12-29T00:01:48;5.94;76.17
76426;DHT22;65258;42.680;23.266;2022-12-29T00:04:14;5.97;76.13
76426;DHT22;65258;42.680;23.266;2022-12-29T00:06:40;6.02;76.18
76426;DHT22;65258;42.680;23.266;2022-12-29T00:09:06;6.06;75.97
76426;DHT22;65258;42.680;23.266;2022-12-29T00:11:31;6.09;76.05
76426;DHT22;65258;42.680;23.266;2022-12-29T00:13:57;6.12;75.90
76426;DHT22;65258;42.680;23.266;2022-12-29T00:16:42;6.08;75.87
76426;DHT22;65258;42.680;23.266;2022-12-29T00:19:08;6.13;75.76
76426;DHT22;65258;42.680;23.266;2022-12-29T00:21:54;6.12;75.73
76426;DHT22;65258;42.680;23.266;2022-12-29T00:24:38;6.13;75.77
76426;DHT22;65258;42.680;23.266;2022-12-29T00:27:19;6.09;75.91
76426;DHT22;65258;42.680;23.266;2022-12-29T00:30:08;6.08;75.95
76426;DHT22;65258;42.680;23.266;2022-12-29T00:32:52;6.10;76.01
76426;DHT22;65258;42.680;23.266;2022-12-29T00:36:03;6.13;75.88
76426;DHT22;65258;42.680;23.266;2022-12-29T00:38:29;6.15;75.71
76426;DHT22;65258;42.680;23.266;2022-12-29T00:41:15;6.10;75.55
76426;DHT22;65258;42.680;23.266;2022-12-29T00:44:00;6.12;75.72
76426;DHT22;65258;42.680;23.266;2022-12-29T00:46:39;6.12;75.86
76426;DHT22;65258;42.680;23.266;2022-12-29T00:49:07;6.13;75.90
76426;DHT22;65258;42.680;23.266;2022-12-29T00:51:52;6.12;75.75
76426;DHT22;65258;42.680;23.266;2022-12-29T00:54:20;6.12;75.86
76426;DHT22;65258;42.680;23.266;2022-12-29T00:56:49;6.16;75.91
76426;DHT22;65258;42.680;23.266;2022-12-29T00:59:16;6.16;75.83
76426;DHT22;65258;42.680;23.266;2022-12-29T01:01:42;6.19;75.62
76426;DHT22;65258;42.680;23.266;2022-12-29T01:04:08;6.16;75.55
76426;DHT22;65258;42.680;23.266;2022-12-29T01:06:35;6.15;75.31
76426;DHT22;65258;42.680;23.266;2022-12-29T01:09:02;6.13;75.18
76426;DHT22;65258;42.680;23.266;2022-12-29T01:11:47;6.10;75.14
76426;DHT22;65258;42.680;23.266;2022-12-29T01:14:12;6.12;75.30
76426;DHT22;65258;42.680;23.266;2022-12-29T01:16:38;6.09;75.19
76426;DHT22;65258;42.680;23.266;2022-12-29T01:19:04;6.12;75.23
76426;DHT22;65258;42.680;23.266;2022-12-29T01:21:29;6.13;75.13
76426;DHT22;65258;42.680;23.266;2022-12-29T01:23:55;6.13;75.20
76426;DHT22;65258;42.680;23.266;2022-12-29T01:26:20;6.18;74.91
76426;DHT22;65258;42.680;23.266;2022-12-29T01:28:46;6.18;74.95
76426;DHT22;65258;42.680;23.266;2022-12-29T01:31:13;6.18;74.94
76426;DHT22;65258;42.680;23.266;2022-12-29T01:33:40;6.13;74.83
76426;DHT22;65258;42.680;23.266;2022-12-29T01:36:08;6.13;75.04
76426;DHT22;65258;42.680;23.266;2022-12-29T01:38:35;6.12;75.11
76426;DHT22;65258;42.680;23.266;2022-12-29T01:41:01;6.18;75.07
76426;DHT22;65258;42.680;23.266;2022-12-29T01:46:11;6.05;74.91
76426;DHT22;65258;42.680;23.266;2022-12-29T01:48:39;6.06;74.90
76426;DHT22;65258;42.680;23.266;2022-12-29T01:51:06;5.99;74.85
76426;DHT22;65258;42.680;23.266;2022-12-29T01:53:33;5.94;75.00
76426;DHT22;65258;42.680;23.266;2022-12-29T01:56:04;5.94;75.03
76426;DHT22;65258;42.680;23.266;2022-12-29T01:58:34;5.97;75.03
76426;DHT22;65258;42.680;23.266;2022-12-29T02:01:02;5.98;74.96
76426;DHT22;65258;42.680;23.266;2022-12-29T02:03:28;5.97;75.08
76426;DHT22;65258;42.680;23.266;2022-12-29T02:06:08;5.97;75.12
76426;DHT22;65258;42.680;23.266;2022-12-29T02:08:37;5.98;75.10
76426;DHT22;65258;42.680;23.266;2022-12-29T02:11:04;6.02;75.09
76426;DHT22;65258;42.680;23.266;2022-12-29T02:13:33;6.02;75.00
76426;DHT22;65258;42.680;23.266;2022-12-29T02:32:37;5.98;75.27
76426;DHT22;65258;42.680;23.266;2022-12-29T02:41:00;5.98;75.47
76426;DHT22;65258;42.680;23.266;2022-12-29T02:43:44;5.98;75.46
76426;DHT22;65258;42.680;23.266;2022-12-29T02:46:29;5.98;75.42
76426;DHT22;65258;42.680;23.266;2022-12-29T02:49:10;5.98;75.40
76426;DHT22;65258;42.680;23.266;2022-12-29T02:52:16;6.01;75.42
76426;DHT22;65258;42.680;23.266;2022-12-29T02:54:43;6.10;75.26
76426;DHT22;65258;42.680;23.266;2022-12-29T02:59:49;6.13;75.10
76426;DHT22;65258;42.680;23.266;2022-12-29T03:08:06;6.15;74.87
76426;DHT22;65258;42.680;23.266;2022-12-29T03:10:59;6.13;74.78
76426;DHT22;65258;42.680;23.266;2022-12-29T03:13:45;6.09;74.92
76426;DHT22;65258;42.680;23.266;2022-12-29T03:16:51;6.12;75.10
76426;DHT22;65258;42.680;23.266;2022-12-29T03:19:28;6.08;74.82
76426;DHT22;65258;42.680;23.266;2022-12-29T03:21:59;6.02;74.91
76426;DHT22;65258;42.680;23.266;2022-12-29T03:24:58;5.94;74.92
76426;DHT22;65258;42.680;23.266;2022-12-29T03:27:28;5.81;74.89
76426;DHT22;65258;42.680;23.266;2022-12-29T03:29:58;5.68;75.10
76426;DHT22;65258;42.680;23.266;2022-12-29T03:32:36;5.51;75.32
76426;DHT22;65258;42.680;23.266;2022-12-29T03:35:04;5.34;75.27
76426;DHT22;65258;42.680;23.266;2022-12-29T03:37:36;5.19;75.62
76426;DHT22;65258;42.680;23.266;2022-12-29T03:40:04;5.05;76.00
76426;DHT22;65258;42.680;23.266;2022-12-29T03:42:32;4.96;76.60
76426;DHT22;65258;42.680;23.266;2022-12-29T03:44:59;4.82;76.88
76426;DHT22;65258;42.680;23.266;2022-12-29T03:47:25;4.69;76.43
76426;DHT22;65258;42.680;23.266;2022-12-29T03:49:51;4.56;76.66
76426;DHT22;65258;42.680;23.266;2022-12-29T03:52:17;4.46;77.08
76426;DHT22;65258;42.680;23.266;2022-12-29T03:54:44;4.35;77.29
76426;DHT22;65258;42.680;23.266;2022-12-29T03:57:11;4.28;77.40
76426;DHT22;65258;42.680;23.266;2022-12-29T03:59:59;4.15;77.48
76426;DHT22;65258;42.680;23.266;2022-12-29T04:02:24;4.08;77.87
76426;DHT22;65258;42.680;23.266;2022-12-29T04:04:51;4.00;78.12
76426;DHT22;65258;42.680;23.266;2022-12-29T04:07:16;3.93;78.41
76426;DHT22;65258;42.680;23.266;2022-12-29T04:09:43;3.86;78.64
76426;DHT22;65258;42.680;23.266;2022-12-29T04:12:13;3.79;78.65
76426;DHT22;65258;42.680;23.266;2022-12-29T04:14:40;3.70;78.72
76426;DHT22;65258;42.680;23.266;2022-12-29T04:17:06;3.67;79.01
76426;DHT22;65258;42.680;23.266;2022-12-29T04:19:32;3.56;78.96
76426;DHT22;65258;42.680;23.266;2022-12-29T04:21:57;3.53;79.22
76426;DHT22;65258;42.680;23.266;2022-12-29T04:24:23;3.49;79.17
76426;DHT22;65258;42.680;23.266;2022-12-29T04:26:49;3.44;79.20
76426;DHT22;65258;42.680;23.266;2022-12-29T04:29:29;3.39;79.59
76426;DHT22;65258;42.680;23.266;2022-12-29T04:32:27;3.33;79.95
76426;DHT22;65258;42.680;23.266;2022-12-29T04:34:54;3.32;80.53
76426;DHT22;65258;42.680;23.266;2022-12-29T04:37:20;3.25;80.36
76426;DHT22;65258;42.680;23.266;2022-12-29T04:39:45;3.22;80.15
76426;DHT22;65258;42.680;23.266;2022-12-29T04:42:11;3.16;80.01
76426;DHT22;65258;42.680;23.266;2022-12-29T04:44:36;3.15;80.15
76426;DHT22;65258;42.680;23.266;2022-12-29T04:47:09;3.13;80.14
76426;DHT22;65258;42.680;23.266;2022-12-29T04:49:58;3.09;80.15
76426;DHT22;65258;42.680;23.266;2022-12-29T04:52:42;3.15;80.84
76426;DHT22;65258;42.680;23.266;2022-12-29T04:55:09;3.20;81.07
76426;DHT22;65258;42.680;23.266;2022-12-29T04:57:35;3.22;81.11
76426;DHT22;65258;42.680;23.266;2022-12-29T05:00:00;3.29;81.07
76426;DHT22;65258;42.680;23.266;2022-12-29T05:02:27;3.35;81.02
76426;DHT22;65258;42.680;23.266;2022-12-29T05:04:54;3.43;81.08
76426;DHT22;65258;42.680;23.266;2022-12-29T05:07:19;3.49;81.10
76426;DHT22;65258;42.680;23.266;2022-12-29T05:09:47;3.53;80.97
76426;DHT22;65258;42.680;23.266;2022-12-29T05:12:12;3.60;80.86
76426;DHT22;65258;42.680;23.266;2022-12-29T05:14:46;3.67;80.96
76426;DHT22;65258;42.680;23.266;2022-12-29T05:20:39;3.90;81.05
76426;DHT22;65258;42.680;23.266;2022-12-29T05:23:05;4.01;80.73
76426;DHT22;65258;42.680;23.266;2022-12-29T05:25:30;4.10;80.57
76426;DHT22;65258;42.680;23.266;2022-12-29T05:28:07;4.17;80.32
76426;DHT22;65258;42.680;23.266;2022-12-29T05:30:49;4.24;80.18
76426;DHT22;65258;42.680;23.266;2022-12-29T05:33:18;4.34;79.97
76426;DHT22;65258;42.680;23.266;2022-12-29T05:35:44;4.40;79.65
76426;DHT22;65258;42.680;23.266;2022-12-29T05:38:10;4.45;79.37
76426;DHT22;65258;42.680;23.266;2022-12-29T05:40:36;4.49;79.29
76426;DHT22;65258;42.680;23.266;2022-12-29T05:43:06;4.56;79.28
76426;DHT22;65258;42.680;23.266;2022-12-29T05:45:42;4.66;79.02
76426;DHT22;65258;42.680;23.266;2022-12-29T05:48:23;4.72;78.73
76426;DHT22;65258;42.680;23.266;2022-12-29T05:51:09;4.73;78.65
76426;DHT22;65258;42.680;23.266;2022-12-29T05:53:55;4.72;78.46
76426;DHT22;65258;42.680;23.266;2022-12-29T05:56:21;4.76;78.35
76426;DHT22;65258;42.680;23.266;2022-12-29T05:58:54;4.79;78.38
76426;DHT22;65258;42.680;23.266;2022-12-29T06:01:21;4.80;78.41
76426;DHT22;65258;42.680;23.266;2022-12-29T06:03:47;4.86;78.42
76426;DHT22;65258;42.680;23.266;2022-12-29T06:06:12;4.92;78.42
76426;DHT22;65258;42.680;23.266;2022-12-29T06:08:38;4.97;78.30
76426;DHT22;65258;42.680;23.266;2022-12-29T06:11:03;5.00;78.10
76426;DHT22;65258;42.680;23.266;2022-12-29T06:13:29;5.07;77.93
76426;DHT22;65258;42.680;23.266;2022-12-29T06:15:56;5.15;77.70
76426;DHT22;65258;42.680;23.266;2022-12-29T06:18:24;5.19;77.76
76426;DHT22;65258;42.680;23.266;2022-12-29T06:20:50;5.26;77.68
76426;DHT22;65258;42.680;23.266;2022-12-29T06:23:17;5.28;77.52
76426;DHT22;65258;42.680;23.266;2022-12-29T06:25:44;5.36;77.45
76426;DHT22;65258;42.680;23.266;2022-12-29T06:28:11;5.43;77.42
76426;DHT22;65258;42.680;23.266;2022-12-29T06:30:37;5.50;77.35
76426;DHT22;65258;42.680;23.266;2022-12-29T06:33:03;5.57;77.15
76426;DHT22;65258;42.680;23.266;2022-12-29T06:35:29;5.69;76.92
76426;DHT22;65258;42.680;23.266;2022-12-29T06:37:55;5.77;77.22
76426;DHT22;65258;42.680;23.266;2022-12-29T06:40:20;5.89;77.09
76426;DHT22;65258;42.680;23.266;2022-12-29T06:43:05;5.92;76.43
76426;DHT22;65258;42.680;23.266;2022-12-29T06:45:49;5.98;75.90
76426;DHT22;65258;42.680;23.266;2022-12-29T06:48:14;6.10;76.06
76426;DHT22;65258;42.680;23.266;2022-12-29T06:50:40;6.23;75.50
76426;DHT22;65258;42.680;23.266;2022-12-29T06:53:05;6.39;74.95
76426;DHT22;65258;42.680;23.266;2022-12-29T06:55:31;6.49;74.39
76426;DHT22;65258;42.680;23.266;2022-12-29T06:57:57;6.62;74.16
76426;DHT22;65258;42.680;23.266;2022-12-29T07:00:24;6.73;73.48
76426;DHT22;65258;42.680;23.266;2022-12-29T07:02:50;6.95;73.09
76426;DHT22;65258;42.680;23.266;2022-12-29T07:05:16;7.28;71.20
76426;DHT22;65258;42.680;23.266;2022-12-29T07:07:42;7.65;70.50
76426;DHT22;65258;42.680;23.266;2022-12-29T07:10:07;8.00;69.32
76426;DHT22;65258;42.680;23.266;2022-12-29T07:12:33;8.34;66.72
76426;DHT22;65258;42.680;23.266;2022-12-29T07:14:59;8.75;66.04
76426;DHT22;65258;42.680;23.266;2022-12-29T07:17:24;9.01;63.47
76426;DHT22;65258;42.680;23.266;2022-12-29T07:19:50;8.91;63.69
76426;DHT22;65258;42.680;23.266;2022-12-29T07:22:15;9.03;64.74
76426;DHT22;65258;42.680;23.266;2022-12-29T07:24:41;9.47;63.58
76426;DHT22;65258;42.680;23.266;2022-12-29T07:27:08;9.94;61.03
76426;DHT22;65258;42.680;23.266;2022-12-29T07:29:34;10.28;59.66
76426;DHT22;65258;42.680;23.266;2022-12-29T07:32:01;10.66;59.13
76426;DHT22;65258;42.680;23.266;2022-12-29T07:34:27;11.11;56.90
76426;DHT22;65258;42.680;23.266;2022-12-29T07:36:52;11.52;56.67
76426;DHT22;65258;42.680;23.266;2022-12-29T07:39:17;11.86;56.10
76426;DHT22;65258;42.680;23.266;2022-12-29T07:41:43;12.11;55.67
76426;DHT22;65258;42.680;23.266;2022-12-29T07:44:15;12.32;54.46
76426;DHT22;65258;42.680;23.266;2022-12-29T07:46:55;12.15;54.04
76426;DHT22;65258;42.680;23.266;2022-12-29T07:49:21;11.85;53.96
76426;DHT22;65258;42.680;23.266;2022-12-29T07:51:46;11.81;55.06
76426;DHT22;65258;42.680;23.266;2022-12-29T07:54:12;11.81;54.49
76426;DHT22;65258;42.680;23.266;2022-12-29T07:56:37;11.62;55.81
76426;DHT22;65258;42.680;23.266;2022-12-29T07:59:03;11.41;55.28
76426;DHT22;65258;42.680;23.266;2022-12-29T08:01:29;11.32;56.30
76426;DHT22;65258;42.680;23.266;2022-12-29T08:03:54;11.03;55.86
76426;DHT22;65258;42.680;23.266;2022-12-29T08:06:20;10.60;57.25
76426;DHT22;65258;42.680;23.266;2022-12-29T08:08:45;10.41;59.16
76426;DHT22;65258;42.680;23.266;2022-12-29T08:11:11;10.36;58.53
76426;DHT22;65258;42.680;23.266;2022-12-29T08:13:36;10.35;59.54
76426;DHT22;65258;42.680;23.266;2022-12-29T08:16:02;10.07;58.98
76426;DHT22;65258;42.680;23.266;2022-12-29T08:18:27;9.85;60.27
76426;DHT22;65258;42.680;23.266;2022-12-29T08:20:53;9.88;60.38
76426;DHT22;65258;42.680;23.266;2022-12-29T08:23:18;9.78;59.52
76426;DHT22;65258;42.680;23.266;2022-12-29T08:25:44;9.90;60.68
76426;DHT22;65258;42.680;23.266;2022-12-29T08:28:10;10.32;58.41
76426;DHT22;65258;42.680;23.266;2022-12-29T08:30:36;10.28;58.25
76426;DHT22;65258;42.680;23.266;2022-12-29T08:33:02;10.70;59.56
76426;DHT22;65258;42.680;23.266;2022-12-29T08:35:28;11.20;58.25
76426;DHT22;65258;42.680;23.266;2022-12-29T08:37:53;11.42;56.17
76426;DHT22;65258;42.680;23.266;2022-12-29T08:40:19;11.83;55.96
76426;DHT22;65258;42.680;23.266;2022-12-29T08:42:44;12.26;55.44
76426;DHT22;65258;42.680;23.266;2022-12-29T08:45:10;12.64;52.88
76426;DHT22;65258;42.680;23.266;2022-12-29T08:47:36;12.59;53.03
76426;DHT22;65258;42.680;23.266;2022-12-29T08:50:01;12.81;51.89
76426;DHT22;65258;42.680;23.266;2022-12-29T08:52:27;13.04;51.90
76426;DHT22;65258;42.680;23.266;2022-12-29T08:54:52;13.24;51.69
76426;DHT22;65258;42.680;23.266;2022-12-29T08:57:20;13.51;51.87
76426;DHT22;65258;42.680;23.266;2022-12-29T09:00:09;13.00;49.67
76426;DHT22;65258;42.680;23.266;2022-12-29T09:02:35;12.68;53.59
76426;DHT22;65258;42.680;23.266;2022-12-29T09:05:00;12.77;51.43
76426;DHT22;65258;42.680;23.266;2022-12-29T09:07:26;12.73;52.39
76426;DHT22;65258;42.680;23.266;2022-12-29T09:09:51;13.00;52.87
76426;DHT22;65258;42.680;23.266;2022-12-29T09:12:17;13.21;52.72
76426;DHT22;65258;42.680;23.266;2022-12-29T09:14:43;13.27;51.03
76426;DHT22;65258;42.680;23.266;2022-12-29T09:17:10;13.18;49.93
76426;DHT22;65258;42.680;23.266;2022-12-29T09:19:54;13.12;51.80
76426;DHT22;65258;42.680;23.266;2022-12-29T09:22:20;13.31;52.20
76426;DHT22;65258;42.680;23.266;2022-12-29T09:24:45;13.45;51.37
76426;DHT22;65258;42.680;23.266;2022-12-29T09:27:11;13.55;51.78
76426;DHT22;65258;42.680;23.266;2022-12-29T09:29:36;13.54;52.36
76426;DHT22;65258;42.680;23.266;2022-12-29T09:32:02;13.54;50.84
76426;DHT22;65258;42.680;23.266;2022-12-29T09:34:27;13.15;50.25
76426;DHT22;65258;42.680;23.266;2022-12-29T09:36:53;12.88;52.09
76426;DHT22;65258;42.680;23.266;2022-12-29T09:39:19;12.84;51.75
76426;DHT22;65258;42.680;23.266;2022-12-29T09:47:17;12.32;52.93
76426;DHT22;65258;42.680;23.266;2022-12-29T09:49:48;12.16;54.07
76426;DHT22;65258;42.680;23.266;2022-12-29T09:52:19;12.25;53.76
76426;DHT22;65258;42.680;23.266;2022-12-29T09:54:59;12.29;53.74
76426;DHT22;65258;42.680;23.266;2022-12-29T09:57:32;12.33;53.36
76426;DHT22;65258;42.680;23.266;2022-12-29T10:00:03;12.32;54.42
76426;DHT22;65258;42.680;23.266;2022-12-29T10:02:43;12.22;55.39
76426;DHT22;65258;42.680;23.266;2022-12-29T10:08:11;12.05;54.16
76426;DHT22;65258;42.680;23.266;2022-12-29T10:10:48;11.86;55.62
76426;DHT22;65258;42.680;23.266;2022-12-29T10:24:16;11.83;54.15
76426;DHT22;65258;42.680;23.266;2022-12-29T10:26:45;11.50;55.28
76426;DHT22;65258;42.680;23.266;2022-12-29T10:31:44;11.42;56.94
76426;DHT22;65258;42.680;23.266;2022-12-29T10:34:31;11.52;57.05
76426;DHT22;65258;42.680;23.266;2022-12-29T10:37:03;11.58;55.18
76426;DHT22;65258;42.680;23.266;2022-12-29T10:39:49;11.50;56.27
76426;DHT22;65258;42.680;23.266;2022-12-29T10:42:34;11.40;56.31
76426;DHT22;65258;42.680;23.266;2022-12-29T10:45:02;11.41;56.14
76426;DHT22;65258;42.680;23.266;2022-12-29T10:47:33;11.50;56.48
76426;DHT22;65258;42.680;23.266;2022-12-29T10:50:02;11.72;56.58
76426;DHT22;65258;42.680;23.266;2022-12-29T10:52:28;11.52;55.33
76426;DHT22;65258;42.680;23.266;2022-12-29T10:54:56;11.40;56.16
76426;DHT22;65258;42.680;23.266;2022-12-29T10:57:34;11.35;56.51
76426;DHT22;65258;42.680;23.266;2022-12-29T11:00:04;11.48;56.95
76426;DHT22;65258;42.680;23.266;2022-12-29T11:08:51;11.86;55.98
76426;DHT22;65258;42.680;23.266;2022-12-29T11:11:23;11.92;57.25
76426;DHT22;65258;42.680;23.266;2022-12-29T11:13:57;12.01;56.25
76426;DHT22;65258;42.680;23.266;2022-12-29T11:16:33;11.93;56.02
76426;DHT22;65258;42.680;23.266;2022-12-29T11:19:00;11.96;56.65
76426;DHT22;65258;42.680;23.266;2022-12-29T11:23:58;11.93;55.65
76426;DHT22;65258;42.680;23.266;2022-12-29T11:26:25;12.01;56.26
76426;DHT22;65258;42.680;23.266;2022-12-29T11:31:52;12.09;55.74
76426;DHT22;65258;42.680;23.266;2022-12-29T11:34:39;12.08;55.42
76426;DHT22;65258;42.680;23.266;2022-12-29T11:37:12;12.16;55.71
76426;DHT22;65258;42.680;23.266;2022-12-29T11:42:16;11.93;55.11
76426;DHT22;65258;42.680;23.266;2022-12-29T11:44:47;11.96;55.77
76426;DHT22;65258;42.680;23.266;2022-12-29T11:47:25;12.03;56.51
76426;DHT22;65258;42.680;23.266;2022-12-29T11:49:54;12.11;56.11
76426;DHT22;65258;42.680;23.266;2022-12-29T11:52:25;12.12;56.08
76426;DHT22;65258;42.680;23.266;2022-12-29T11:54:52;12.13;56.12
76426;DHT22;65258;42.680;23.266;2022-12-29T11:57:19;12.05;55.96
76426;DHT22;65258;42.680;23.266;2022-12-29T11:59:55;12.01;55.87
76426;DHT22;65258;42.680;23.266;2022-12-29T12:02:36;12.09;56.96
76426;DHT22;65258;42.680;23.266;2022-12-29T12:07:42;12.12;55.38
76426;DHT22;65258;42.680;23.266;2022-12-29T12:10:17;12.16;55.29
76426;DHT22;65258;42.680;23.266;2022-12-29T12:12:50;12.09;55.18
76426;DHT22;65258;42.680;23.266;2022-12-29T12:15:34;12.15;55.04
76426;DHT22;65258;42.680;23.266;2022-12-29T12:18:12;12.25;56.13
76426;DHT22;65258;42.680;23.266;2022-12-29T12:20:45;12.26;56.18
76426;DHT22;65258;42.680;23.266;2022-12-29T12:23:38;12.26;55.76
76426;DHT22;65258;42.680;23.266;2022-12-29T12:26:27;12.22;55.77
76426;DHT22;65258;42.680;23.266;2022-12-29T12:29:05;12.26;56.03
76426;DHT22;65258;42.680;23.266;2022-12-29T12:31:51;12.28;55.06
76426;DHT22;65258;42.680;23.266;2022-12-29T12:34:30;12.30;54.88
76426;DHT22;65258;42.680;23.266;2022-12-29T12:39:41;12.22;54.46
76426;DHT22;65258;42.680;23.266;2022-12-29T12:42:42;12.09;54.67
76426;DHT22;65258;42.680;23.266;2022-12-29T12:53:29;11.70;55.99
76426;DHT22;65258;42.680;23.266;2022-12-29T13:09:22;11.26;57.58
76426;DHT22;65258;42.680;23.266;2022-12-29T13:13:09;11.28;58.44
76426;DHT22;65258;42.680;23.266;2022-12-29T13:20:47;11.23;58.13
76426;DHT22;65258;42.680;23.266;2022-12-29T13:26:24;11.09;58.24
76426;DHT22;65258;42.680;23.266;2022-12-29T13:31:47;10.77;59.70
76426;DHT22;65258;42.680;23.266;2022-12-29T13:37:02;11.01;60.02
76426;DHT22;65258;42.680;23.266;2022-12-29T13:39:34;11.10;58.92
76426;DHT22;65258;42.680;23.266;2022-12-29T13:42:03;11.11;58.90
76426;DHT22;65258;42.680;23.266;2022-12-29T13:47:01;11.13;59.28
76426;DHT22;65258;42.680;23.266;2022-12-29T13:49:28;11.23;58.89
76426;DHT22;65258;42.680;23.266;2022-12-29T13:51:58;11.26;58.61
76426;DHT22;65258;42.680;23.266;2022-12-29T13:57:28;11.31;58.93
76426;DHT22;65258;42.680;23.266;2022-12-29T14:00:02;11.09;58.85
76426;DHT22;65258;42.680;23.266;2022-12-29T14:05:28;10.93;59.78
76426;DHT22;65258;42.680;23.266;2022-12-29T14:08:03;11.04;60.13
76426;DHT22;65258;42.680;23.266;2022-12-29T14:10:37;11.04;59.86
76426;DHT22;65258;42.680;23.266;2022-12-29T14:13:13;10.86;60.10
76426;DHT22;65258;42.680;23.266;2022-12-29T14:15:42;10.81;60.63
76426;DHT22;65258;42.680;23.266;2022-12-29T14:18:23;10.80;61.14
76426;DHT22;65258;42.680;23.266;2022-12-29T14:21:11;10.76;60.83
76426;DHT22;65258;42.680;23.266;2022-12-29T14:23:48;10.73;60.99
76426;DHT22;65258;42.680;23.266;2022-12-29T14:26:33;10.53;61.78
76426;DHT22;65258;42.680;23.266;2022-12-29T14:31:54;10.55;61.90
76426;DHT22;65258;42.680;23.266;2022-12-29T14:44:51;10.28;62.42
76426;DHT22;65258;42.680;23.266;2022-12-29T14:47:38;10.21;62.61
76426;DHT22;65258;42.680;23.266;2022-12-29T14:50:16;10.09;62.35
76426;DHT22;65258;42.680;23.266;2022-12-29T14:52:53;9.97;62.65
76426;DHT22;65258;42.680;23.266;2022-12-29T14:58:30;9.75;63.93
76426;DHT22;65258;42.680;23.266;2022-12-29T15:00:58;9.65;64.05
76426;DHT22;65258;42.680;23.266;2022-12-29T15:03:43;9.60;64.26
76426;DHT22;65258;42.680;23.266;2022-12-29T15:06:11;9.55;65.03
76426;DHT22;65258;42.680;23.266;2022-12-29T15:08:39;9.50;65.64
76426;DHT22;65258;42.680;23.266;2022-12-29T15:11:19;9.48;65.78
76426;DHT22;65258;42.680;23.266;2022-12-29T15:13:45;9.43;65.89
76426;DHT22;65258;42.680;23.266;2022-12-29T15:16:33;9.36;65.85
76426;DHT22;65258;42.680;23.266;2022-12-29T15:19:01;9.36;66.36
76426;DHT22;65258;42.680;23.266;2022-12-29T15:21:31;9.27;66.44
76426;DHT22;65258;42.680;23.266;2022-12-29T15:23:57;9.20;66.44
76426;DHT22;65258;42.680;23.266;2022-12-29T15:26:23;9.12;66.64
76426;DHT22;65258;42.680;23.266;2022-12-29T15:29:01;8.98;67.09
76426;DHT22;65258;42.680;23.266;2022-12-29T15:31:26;8.83;66.94
76426;DHT22;65258;42.680;23.266;2022-12-29T15:33:54;8.75;67.40
76426;DHT22;65258;42.680;23.266;2022-12-29T15:36:25;8.61;68.03
76426;DHT22;65258;42.680;23.266;2022-12-29T15:38:52;8.51;67.87
76426;DHT22;65258;42.680;23.266;2022-12-29T15:41:47;8.41;68.34
76426;DHT22;65258;42.680;23.266;2022-12-29T15:44:32;8.34;68.56
76426;DHT22;65258;42.680;23.266;2022-12-29T15:47:14;8.26;69.15
76426;DHT22;65258;42.680;23.266;2022-12-29T15:49:43;8.21;69.56
76426;DHT22;65258;42.680;23.266;2022-12-29T15:52:10;8.17;69.74
76426;DHT22;65258;42.680;23.266;2022-12-29T15:54:36;8.11;69.91
76426;DHT22;65258;42.680;23.266;2022-12-29T15:57:03;8.11;70.04
76426;DHT22;65258;42.680;23.266;2022-12-29T15:59:33;8.11;70.02
76426;DHT22;65258;42.680;23.266;2022-12-29T16:02:00;8.10;69.94
76426;DHT22;65258;42.680;23.266;2022-12-29T16:04:29;8.04;69.88
76426;DHT22;65258;42.680;23.266;2022-12-29T16:06:58;7.93;70.31
76426;DHT22;65258;42.680;23.266;2022-12-29T16:09:32;7.83;70.61
76426;DHT22;65258;42.680;23.266;2022-12-29T16:12:22;7.77;70.87
76426;DHT22;65258;42.680;23.266;2022-12-29T16:14:57;7.66;71.14
76426;DHT22;65258;42.680;23.266;2022-12-29T16:17:29;7.63;71.76
76426;DHT22;65258;42.680;23.266;2022-12-29T16:20:01;7.59;71.76
76426;DHT22;65258;42.680;23.266;2022-12-29T16:22:34;7.56;72.19
76426;DHT22;65258;42.680;23.266;2022-12-29T16:25:04;7.59;71.93
76426;DHT22;65258;42.680;23.266;2022-12-29T16:27:36;7.58;72.06
76426;DHT22;65258;42.680;23.266;2022-12-29T16:30:16;7.55;72.28
76426;DHT22;65258;42.680;23.266;2022-12-29T16:32:46;7.52;72.39
76426;DHT22;65258;42.680;23.266;2022-12-29T16:35:26;7.45;72.40
76426;DHT22;65258;42.680;23.266;2022-12-29T16:40:38;7.26;73.24
76426;DHT22;65258;42.680;23.266;2022-12-29T16:43:04;7.21;72.88
76426;DHT22;65258;42.680;23.266;2022-12-29T16:50:42;6.91;73.25
76426;DHT22;65258;42.680;23.266;2022-12-29T16:53:26;6.83;73.82
76426;DHT22;65258;42.680;23.266;2022-12-29T16:55:53;6.77;73.68
76426;DHT22;65258;42.680;23.266;2022-12-29T16:58:22;6.74;73.79
76426;DHT22;65258;42.680;23.266;2022-12-29T17:00:48;6.70;73.99
76426;DHT22;65258;42.680;23.266;2022-12-29T17:03:14;6.66;74.15
76426;DHT22;65258;42.680;23.266;2022-12-29T17:05:40;6.64;74.60
76426;DHT22;65258;42.680;23.266;2022-12-29T17:08:20;6.58;74.66
76426;DHT22;65258;42.680;23.266;2022-12-29T17:10:52;6.58;74.96
76426;DHT22;65258;42.680;23.266;2022-12-29T17:13:37;6.54;74.84
76426;DHT22;65258;42.680;23.266;2022-12-29T17:16:04;6.53;74.92
76426;DHT22;65258;42.680;23.266;2022-12-29T17:18:30;6.49;75.33
76426;DHT22;65258;42.680;23.266;2022-12-29T17:20:55;6.44;75.07
76426;DHT22;65258;42.680;23.266;2022-12-29T17:23:21;6.42;75.33
76426;DHT22;65258;42.680;23.266;2022-12-29T17:25:47;6.37;75.36
76426;DHT22;65258;42.680;23.266;2022-12-29T17:28:23;6.33;75.32
76426;DHT22;65258;42.680;23.266;2022-12-29T17:30:50;6.29;75.73
76426;DHT22;65258;42.680;23.266;2022-12-29T17:33:18;6.26;75.78
76426;DHT22;65258;42.680;23.266;2022-12-29T17:35:44;6.19;75.73
76426;DHT22;65258;42.680;23.266;2022-12-29T17:38:21;6.15;75.99
76426;DHT22;65258;42.680;23.266;2022-12-29T17:40:48;6.12;76.13
76426;DHT22;65258;42.680;23.266;2022-12-29T17:43:14;6.12;76.32
76426;DHT22;65258;42.680;23.266;2022-12-29T17:45:42;6.13;76.34
76426;DHT22;65258;42.680;23.266;2022-12-29T17:48:11;6.15;76.19
76426;DHT22;65258;42.680;23.266;2022-12-29T17:50:37;6.19;76.36
76426;DHT22;65258;42.680;23.266;2022-12-29T17:53:04;6.18;76.46
76426;DHT22;65258;42.680;23.266;2022-12-29T17:55:31;6.19;76.92
76426;DHT22;65258;42.680;23.266;2022-12-29T17:57:57;6.25;76.51
76426;DHT22;65258;42.680;23.266;2022-12-29T18:00:28;6.30;76.34
76426;DHT22;65258;42.680;23.266;2022-12-29T18:02:56;6.34;76.37
76426;DHT22;65258;42.680;23.266;2022-12-29T18:05:24;6.37;76.58
76426;DHT22;65258;42.680;23.266;2022-12-29T18:07:51;6.43;76.54
76426;DHT22;65258;42.680;23.266;2022-12-29T18:10:17;6.46;76.22
76426;DHT22;65258;42.680;23.266;2022-12-29T18:12:45;6.54;76.08
76426;DHT22;65258;42.680;23.266;2022-12-29T18:15:25;6.60;75.80
76426;DHT22;65258;42.680;23.266;2022-12-29T18:18:08;6.64;75.89